Wetterdaten: Woche 24.02.14 - 02.03.14 (KW9)
Datum Zeit Temp. A. Feuchte A. Luftdruck Regen Wind Richtung Sonnenschein ET UV Solar Taupunkt Windchill Windben
24.02.2014 00:00 -2,2 C 92 % 1024,3 hPa 0,0 l/m 0,0 km/h (0 Bft) N 0,00 h 0,000 mm 0,0 UV-I 0 W/m -3,4 C -2,2 C 0,0 km/h (0 Bft)
24.02.2014 01:00 -2,8 C 92 % 1024,0 hPa 0,0 l/m 0,2 km/h (0 Bft) O-NO 0,00 h 0,000 mm 0,0 UV-I 0 W/m -3,9 C -2,8 C 0,6 km/h (0 Bft)
24.02.2014 02:00 -3,2 C 93 % 1023,5 hPa 0,0 l/m 1,5 km/h (1 Bft) O 0,00 h 0,000 mm 0,0 UV-I 0 W/m -4,2 C -3,2 C 2,9 km/h (1 Bft)
24.02.2014 03:00 -3,1 C 93 % 1022,9 hPa 0,0 l/m 3,5 km/h (1 Bft) O 0,00 h 0,000 mm 0,0 UV-I 0 W/m -4,0 C -3,1 C 6,2 km/h (2 Bft)
24.02.2014 04:00 -2,8 C 94 % 1022,6 hPa 0,0 l/m 2,9 km/h (1 Bft) O-NO 0,00 h 0,000 mm 0,0 UV-I 0 W/m -3,6 C -2,8 C 5,0 km/h (1 Bft)
24.02.2014 05:00 -1,3 C 92 % 1022,4 hPa 0,0 l/m 3,5 km/h (1 Bft) O-NO 0,00 h 0,000 mm 0,0 UV-I 0 W/m -2,4 C -1,3 C 6,6 km/h (2 Bft)
24.02.2014 06:00 -2,3 C 89 % 1022,3 hPa 0,0 l/m 0,8 km/h (0 Bft) NW 0,00 h 0,000 mm 0,0 UV-I 0 W/m -3,8 C -2,3 C 1,8 km/h (1 Bft)
24.02.2014 07:00 -3,1 C 92 % 1022,5 hPa 0,0 l/m 0,5 km/h (0 Bft) NW 0,00 h 0,000 mm 0,0 UV-I 15 W/m -4,2 C -3,1 C 1,4 km/h (1 Bft)
24.02.2014 08:00 -0,4 C 91 % 1022,2 hPa 0,0 l/m 0,3 km/h (0 Bft) NW 0,88 h 0,000 mm 0,5 UV-I 168 W/m -1,8 C -0,4 C 1,1 km/h (1 Bft)
24.02.2014 09:00 4,3 C 73 % 1021,7 hPa 0,0 l/m 1,4 km/h (1 Bft) S 1,00 h 0,051 mm 0,8 UV-I 323 W/m -0,1 C 4,3 C 3,1 km/h (1 Bft)
24.02.2014 10:00 6,3 C 63 % 1021,2 hPa 0,0 l/m 6,1 km/h (2 Bft) SO 0,93 h 0,127 mm 1,3 UV-I 318 W/m -0,3 C 5,6 C 10,7 km/h (2 Bft)
24.02.2014 11:00 8,0 C 57 % 1020,7 hPa 0,0 l/m 4,9 km/h (1 Bft) O-SO 1,00 h 0,152 mm 1,6 UV-I 413 W/m 0,1 C 7,8 C 8,8 km/h (2 Bft)
24.02.2014 12:00 9,5 C 52 % 1019,9 hPa 0,0 l/m 6,7 km/h (2 Bft) O-SO 1,00 h 0,203 mm 1,4 UV-I 212 W/m 0,1 C 8,6 C 12,2 km/h (2 Bft)
24.02.2014 13:00 10,4 C 49 % 1019,0 hPa 0,0 l/m 6,9 km/h (2 Bft) O-SO 1,00 h 0,127 mm 1,5 UV-I 366 W/m 0,1 C 9,5 C 12,2 km/h (2 Bft)
24.02.2014 14:00 10,8 C 47 % 1018,5 hPa 0,0 l/m 8,9 km/h (2 Bft) O-SO 1,00 h 0,203 mm 1,3 UV-I 432 W/m 0,1 C 9,1 C 15,1 km/h (3 Bft)
24.02.2014 15:00 11,0 C 48 % 1018,2 hPa 0,0 l/m 7,2 km/h (2 Bft) O-SO 1,00 h 0,254 mm 0,7 UV-I 284 W/m 0,3 C 10,0 C 12,2 km/h (2 Bft)
24.02.2014 16:00 10,8 C 47 % 1018,0 hPa 0,0 l/m 4,9 km/h (1 Bft) SO 0,98 h 0,178 mm 0,5 UV-I 122 W/m -0,0 C 10,6 C 8,5 km/h (2 Bft)
24.02.2014 17:00 9,6 C 50 % 1018,3 hPa 0,0 l/m 3,4 km/h (1 Bft) O-SO 0,00 h 0,102 mm 0,0 UV-I 20 W/m -0,4 C 9,6 C 6,2 km/h (2 Bft)
24.02.2014 18:00 8,0 C 55 % 1018,7 hPa 0,0 l/m 4,8 km/h (1 Bft) O-SO 0,00 h 0,025 mm 0,0 UV-I 0 W/m -0,5 C 7,9 C 7,6 km/h (2 Bft)
24.02.2014 19:00 6,9 C 60 % 1018,6 hPa 0,0 l/m 4,1 km/h (1 Bft) O-SO 0,00 h 0,051 mm 0,0 UV-I 0 W/m -0,3 C 6,9 C 6,8 km/h (2 Bft)
24.02.2014 20:00 6,1 C 64 % 1018,3 hPa 0,0 l/m 4,1 km/h (1 Bft) O-SO 0,00 h 0,025 mm 0,0 UV-I 0 W/m -0,3 C 6,1 C 7,0 km/h (2 Bft)
24.02.2014 21:00 4,8 C 68 % 1018,3 hPa 0,0 l/m 2,7 km/h (1 Bft) SO 0,00 h 0,025 mm 0,0 UV-I 0 W/m -0,6 C 4,8 C 4,8 km/h (1 Bft)
24.02.2014 22:00 4,1 C 71 % 1017,9 hPa 0,0 l/m 2,3 km/h (1 Bft) O-NO 0,00 h 0,025 mm 0,0 UV-I 0 W/m -0,6 C 4,1 C 4,0 km/h (1 Bft)
24.02.2014 23:00 2,2 C 77 % 1017,9 hPa 0,0 l/m 2,9 km/h (1 Bft) O-NO 0,00 h 0,025 mm 0,0 UV-I 0 W/m -1,4 C 2,2 C 5,0 km/h (1 Bft)
25.02.2014 00:00 0,6 C 83 % 1017,9 hPa 0,0 l/m 1,8 km/h (1 Bft) O 0,00 h 0,025 mm 0,0 UV-I 0 W/m -1,9 C 0,6 C 3,8 km/h (1 Bft)
25.02.2014 01:00 -0,2 C 86 % 1017,6 hPa 0,0 l/m 0,1 km/h (0 Bft) O 0,00 h 0,000 mm 0,0 UV-I 0 W/m -2,3 C -0,2 C 0,8 km/h (0 Bft)
25.02.2014 02:00 -0,9 C 88 % 1017,3 hPa 0,0 l/m 0,3 km/h (0 Bft) N-NO 0,00 h 0,000 mm 0,0 UV-I 0 W/m -2,7 C -0,9 C 0,7 km/h (0 Bft)
25.02.2014 03:00 -1,5 C 89 % 1017,1 hPa 0,0 l/m 0,2 km/h (0 Bft) N-NO 0,00 h 0,000 mm 0,0 UV-I 0 W/m -3,1 C -1,5 C 0,3 km/h (0 Bft)
25.02.2014 04:00 -2,3 C 89 % 1017,0 hPa 0,0 l/m 0,0 km/h (0 Bft) N 0,00 h 0,000 mm 0,0 UV-I 0 W/m -3,8 C -2,3 C 0,0 km/h (0 Bft)
25.02.2014 05:00 -2,7 C 92 % 1017,1 hPa 0,0 l/m 0,0 km/h (0 Bft) N-NO 0,00 h 0,000 mm 0,0 UV-I 0 W/m -3,8 C -2,7 C 0,2 km/h (0 Bft)
25.02.2014 06:00 -3,1 C 92 % 1017,0 hPa 0,0 l/m 0,0 km/h (0 Bft) N-NO 0,00 h 0,000 mm 0,0 UV-I 0 W/m -4,3 C -3,1 C 0,1 km/h (0 Bft)
25.02.2014 07:00 -3,3 C 92 % 1016,9 hPa 0,0 l/m 0,1 km/h (0 Bft) N-NO 0,03 h 0,000 mm 0,0 UV-I 21 W/m -4,3 C -3,3 C 0,2 km/h (0 Bft)
25.02.2014 08:00 -0,4 C 90 % 1017,0 hPa 0,0 l/m 0,2 km/h (0 Bft) N-NO 1,00 h 0,000 mm 0,5 UV-I 163 W/m -1,9 C -0,4 C 0,8 km/h (0 Bft)
25.02.2014 09:00 3,9 C 77 % 1016,7 hPa 0,0 l/m 0,6 km/h (0 Bft) W 1,00 h 0,051 mm 0,9 UV-I 311 W/m 0,2 C 3,9 C 1,7 km/h (1 Bft)
25.02.2014 10:00 6,7 C 70 % 1016,3 hPa 0,0 l/m 1,0 km/h (0 Bft) W-NW 1,00 h 0,127 mm 1,3 UV-I 319 W/m 1,5 C 6,7 C 2,6 km/h (1 Bft)
25.02.2014 11:00 8,3 C 64 % 1015,9 hPa 0,0 l/m 2,0 km/h (1 Bft) W-NW 1,00 h 0,127 mm 1,6 UV-I 388 W/m 1,9 C 8,3 C 3,8 km/h (1 Bft)
25.02.2014 12:00 9,9 C 57 % 1015,3 hPa 0,0 l/m 4,3 km/h (1 Bft) W-SW 1,00 h 0,178 mm 1,5 UV-I 217 W/m 1,7 C 9,8 C 7,1 km/h (2 Bft)
25.02.2014 13:00 11,0 C 54 % 1014,8 hPa 0,0 l/m 4,8 km/h (1 Bft) W-SW 1,00 h 0,127 mm 1,5 UV-I 344 W/m 2,0 C 11,0 C 7,6 km/h (2 Bft)
25.02.2014 14:00 11,7 C 49 % 1014,5 hPa 0,0 l/m 6,9 km/h (2 Bft) S 1,00 h 0,203 mm 1,2 UV-I 403 W/m 1,5 C 11,0 C 10,3 km/h (2 Bft)
25.02.2014 15:00 11,7 C 49 % 1014,6 hPa 0,0 l/m 4,5 km/h (1 Bft) W-SW 1,00 h 0,229 mm 0,7 UV-I 239 W/m 1,4 C 11,6 C 7,3 km/h (2 Bft)
25.02.2014 16:00 10,7 C 52 % 1014,5 hPa 0,0 l/m 3,8 km/h (1 Bft) S 0,85 h 0,152 mm 0,5 UV-I 88 W/m 1,2 C 10,7 C 6,0 km/h (2 Bft)
25.02.2014 17:00 9,5 C 57 % 1014,7 hPa 0,0 l/m 1,7 km/h (1 Bft) S-SO 0,00 h 0,076 mm 0,0 UV-I 18 W/m 1,3 C 9,5 C 2,8 km/h (1 Bft)
25.02.2014 18:00 6,7 C 70 % 1015,2 hPa 0,0 l/m 2,2 km/h (1 Bft) O 0,00 h 0,025 mm 0,0 UV-I 0 W/m 1,5 C 6,7 C 3,8 km/h (1 Bft)
25.02.2014 19:00 5,2 C 77 % 1015,6 hPa 0,0 l/m 4,6 km/h (1 Bft) O 0,00 h 0,025 mm 0,0 UV-I 0 W/m 1,4 C 5,0 C 8,1 km/h (2 Bft)
25.02.2014 20:00 4,5 C 77 % 1015,7 hPa 0,0 l/m 4,9 km/h (1 Bft) O-NO 0,00 h 0,025 mm 0,0 UV-I 0 W/m 0,8 C 4,5 C 7,8 km/h (2 Bft)
25.02.2014 21:00 3,1 C 81 % 1015,6 hPa 0,0 l/m 2,7 km/h (1 Bft) O 0,00 h 0,025 mm 0,0 UV-I 0 W/m 0,1 C 3,1 C 5,4 km/h (1 Bft)
25.02.2014 22:00 2,2 C 83 % 1015,9 hPa 0,0 l/m 0,0 km/h (0 Bft) N 0,00 h 0,002 mm 0,0 UV-I 0 W/m -0,3 C 2,2 C 0,2 km/h (0 Bft)
25.02.2014 23:00 0,9 C 86 % 1016,0 hPa 0,0 l/m 0,0 km/h (0 Bft) N 0,00 h 0,000 mm 0,0 UV-I 0 W/m -1,2 C 0,9 C 0,0 km/h (0 Bft)
26.02.2014 00:00 -0,4 C 89 % 1016,1 hPa 0,0 l/m 0,2 km/h (0 Bft) O 0,00 h 0,000 mm 0,0 UV-I 0 W/m -1,9 C -0,4 C 0,8 km/h (0 Bft)
26.02.2014 01:00 -0,8 C 92 % 1016,1 hPa 0,0 l/m 0,5 km/h (0 Bft) N-NO 0,00 h 0,000 mm 0,0 UV-I 0 W/m -2,0 C -0,8 C 1,1 km/h (0 Bft)
26.02.2014 02:00 -1,3 C 91 % 1016,2 hPa 0,0 l/m 0,9 km/h (0 Bft) N-NO 0,00 h 0,000 mm 0,0 UV-I 0 W/m -2,5 C -1,3 C 1,9 km/h (1 Bft)
26.02.2014 03:00 -1,8 C 92 % 1016,1 hPa 0,0 l/m 0,5 km/h (0 Bft) N-NO 0,00 h 0,000 mm 0,0 UV-I 0 W/m -2,9 C -1,8 C 1,0 km/h (0 Bft)
26.02.2014 04:00 -2,2 C 92 % 1016,5 hPa 0,0 l/m 0,2 km/h (0 Bft) N-NO 0,00 h 0,000 mm 0,0 UV-I 0 W/m -3,3 C -2,2 C 0,6 km/h (0 Bft)
26.02.2014 05:00 -2,5 C 93 % 1017,0 hPa 0,0 l/m 0,1 km/h (0 Bft) O-SO 0,00 h 0,000 mm 0,0 UV-I 0 W/m -3,5 C -2,5 C 0,6 km/h (0 Bft)
26.02.2014 06:00 -2,6 C 94 % 1017,1 hPa 0,0 l/m 0,6 km/h (0 Bft) W-NW 0,00 h 0,000 mm 0,0 UV-I 0 W/m -3,5 C -2,6 C 1,5 km/h (1 Bft)
26.02.2014 07:00 -1,1 C 95 % 1017,3 hPa 0,0 l/m 2,3 km/h (1 Bft) O 0,32 h 0,000 mm 0,0 UV-I 38 W/m -1,8 C -1,1 C 5,2 km/h (1 Bft)
26.02.2014 08:00 0,7 C 92 % 1017,8 hPa 0,0 l/m 1,3 km/h (1 Bft) O-NO 1,00 h 0,025 mm 0,0 UV-I 88 W/m -0,5 C 0,7 C 3,0 km/h (1 Bft)
26.02.2014 09:00 2,1 C 90 % 1017,8 hPa 0,0 l/m 4,8 km/h (1 Bft) O-NO 1,00 h 0,025 mm 0,9 UV-I 140 W/m 0,7 C 1,9 C 8,5 km/h (2 Bft)
26.02.2014 10:00 4,6 C 81 % 1017,8 hPa 0,0 l/m 3,0 km/h (1 Bft) O-NO 1,00 h 0,076 mm 1,2 UV-I 279 W/m 1,6 C 4,6 C 5,8 km/h (2 Bft)
26.02.2014 11:00 6,2 C 75 % 1017,4 hPa 0,0 l/m 5,0 km/h (1 Bft) O-NO 1,00 h 0,102 mm 1,5 UV-I 314 W/m 2,2 C 5,8 C 8,9 km/h (2 Bft)
26.02.2014 12:00 6,7 C 74 % 1017,5 hPa 0,0 l/m 6,1 km/h (2 Bft) O-NO 1,00 h 0,152 mm 1,6 UV-I 255 W/m 2,5 C 6,0 C 10,3 km/h (2 Bft)
26.02.2014 13:00 7,5 C 71 % 1017,4 hPa 0,0 l/m 5,8 km/h (2 Bft) O 1,00 h 0,127 mm 1,5 UV-I 283 W/m 2,6 C 7,0 C 10,2 km/h (2 Bft)
26.02.2014 14:00 6,5 C 74 % 1017,3 hPa 0,0 l/m 6,1 km/h (2 Bft) O 1,00 h 0,127 mm 1,2 UV-I 318 W/m 2,2 C 5,8 C 10,6 km/h (2 Bft)
26.02.2014 15:00 5,8 C 77 % 1017,5 hPa 0,0 l/m 6,6 km/h (2 Bft) O 1,00 h 0,152 mm 0,7 UV-I 168 W/m 2,1 C 5,1 C 11,1 km/h (2 Bft)
26.02.2014 16:00 4,4 C 81 % 1017,7 hPa 0,0 l/m 7,6 km/h (2 Bft) O-NO 0,88 h 0,076 mm 0,0 UV-I 75 W/m 1,4 C 3,1 C 12,7 km/h (3 Bft)
26.02.2014 17:00 3,0 C 85 % 1018,1 hPa 0,0 l/m 7,9 km/h (2 Bft) O-NO 0,00 h 0,051 mm 0,0 UV-I 22 W/m 0,8 C 1,3 C 12,8 km/h (3 Bft)
26.02.2014 18:00 1,5 C 89 % 1018,8 hPa 0,0 l/m 9,3 km/h (2 Bft) O 0,00 h 0,025 mm 0,0 UV-I 0 W/m -0,1 C -1,3 C 14,6 km/h (3 Bft)
26.02.2014 19:00 0,8 C 91 % 1019,3 hPa 0,0 l/m 6,0 km/h (2 Bft) O 0,00 h 0,000 mm 0,0 UV-I 0 W/m -0,4 C 0,0 C 10,4 km/h (2 Bft)
26.02.2014 20:00 0,5 C 92 % 1019,7 hPa 0,0 l/m 5,2 km/h (1 Bft) O 0,00 h 0,000 mm 0,0 UV-I 0 W/m -0,5 C 0,2 C 9,7 km/h (2 Bft)
26.02.2014 21:00 0,4 C 93 % 1020,1 hPa 0,0 l/m 5,6 km/h (1 Bft) O-NO 0,00 h 0,000 mm 0,0 UV-I 0 W/m -0,6 C -0,1 C 10,1 km/h (2 Bft)
26.02.2014 22:00 0,3 C 94 % 1020,1 hPa 0,0 l/m 2,8 km/h (1 Bft) NO 0,00 h 0,000 mm 0,0 UV-I 0 W/m -0,6 C 0,2 C 6,2 km/h (2 Bft)
26.02.2014 23:00 0,1 C 94 % 1020,3 hPa 0,0 l/m 3,1 km/h (1 Bft) N-NO 0,00 h 0,000 mm 0,0 UV-I 0 W/m -0,8 C 0,1 C 5,7 km/h (1 Bft)
27.02.2014 00:00 -0,1 C 94 % 1020,4 hPa 0,0 l/m 3,7 km/h (1 Bft) N 0,00 h 0,000 mm 0,0 UV-I 0 W/m -0,9 C -0,1 C 6,5 km/h (2 Bft)
27.02.2014 01:00 -0,3 C 94 % 1020,4 hPa 0,0 l/m 2,2 km/h (1 Bft) N 0,00 h 0,000 mm 0,0 UV-I 0 W/m -1,1 C -0,3 C 4,2 km/h (1 Bft)
27.02.2014 02:00 -0,4 C 95 % 1020,3 hPa 0,0 l/m 1,4 km/h (1 Bft) N 0,00 h 0,000 mm 0,0 UV-I 0 W/m -1,1 C -0,4 C 3,0 km/h (1 Bft)
27.02.2014 03:00 -0,6 C 95 % 1020,2 hPa 0,0 l/m 1,4 km/h (1 Bft) N 0,00 h 0,000 mm 0,0 UV-I 0 W/m -1,3 C -0,6 C 2,8 km/h (1 Bft)
27.02.2014 04:00 -0,8 C 96 % 1020,6 hPa 0,0 l/m 1,0 km/h (0 Bft) N 0,00 h 0,000 mm 0,0 UV-I 0 W/m -1,4 C -0,8 C 2,4 km/h (1 Bft)
27.02.2014 05:00 -1,1 C 96 % 1020,6 hPa 0,0 l/m 1,0 km/h (0 Bft) SO 0,00 h 0,000 mm 0,0 UV-I 0 W/m -1,6 C -1,1 C 2,5 km/h (1 Bft)
27.02.2014 06:00 -1,4 C 96 % 1020,5 hPa 0,0 l/m 1,1 km/h (1 Bft) SO 0,00 h 0,000 mm 0,0 UV-I 0 W/m -1,9 C -1,4 C 2,6 km/h (1 Bft)
27.02.2014 07:00 -1,5 C 96 % 1020,8 hPa 0,0 l/m 0,6 km/h (0 Bft) S 0,00 h 0,000 mm 0,0 UV-I 15 W/m -2,0 C -1,5 C 1,4 km/h (1 Bft)
27.02.2014 08:00 -1,1 C 96 % 1021,1 hPa 0,0 l/m 1,0 km/h (0 Bft) W-SW 0,58 h 0,000 mm 0,0 UV-I 54 W/m -1,6 C -1,1 C 2,2 km/h (1 Bft)
27.02.2014 09:00 -0,2 C 97 % 1021,1 hPa 0,0 l/m 1,0 km/h (0 Bft) O 1,03 h 0,025 mm 0,5 UV-I 75 W/m -0,6 C -0,2 C 2,5 km/h (1 Bft)
27.02.2014 10:00 0,8 C 97 % 1020,7 hPa 0,0 l/m 0,5 km/h (0 Bft) SW 1,00 h 0,025 mm 0,5 UV-I 98 W/m 0,4 C 0,8 C 1,4 km/h (1 Bft)
27.02.2014 11:00 2,0 C 97 % 1020,2 hPa 0,0 l/m 0,5 km/h (0 Bft) S-SO 1,00 h 0,025 mm 0,6 UV-I 108 W/m 1,5 C 2,0 C 1,7 km/h (1 Bft)
27.02.2014 12:00 3,1 C 97 % 1019,5 hPa 0,0 l/m 3,4 km/h (1 Bft) S 0,97 h 0,051 mm 0,6 UV-I 77 W/m 2,6 C 3,0 C 5,6 km/h (1 Bft)
27.02.2014 13:00 3,5 C 96 % 1018,6 hPa 0,0 l/m 3,6 km/h (1 Bft) W-SW 1,00 h 0,025 mm 0,5 UV-I 81 W/m 2,9 C 3,5 C 5,8 km/h (2 Bft)
27.02.2014 14:00 4,3 C 94 % 1017,7 hPa 0,0 l/m 4,1 km/h (1 Bft) S 1,00 h 0,025 mm 0,5 UV-I 93 W/m 3,5 C 4,2 C 6,2 km/h (2 Bft)
27.02.2014 15:00 5,0 C 92 % 1017,0 hPa 0,0 l/m 2,6 km/h (1 Bft) S 0,97 h 0,025 mm 0,5 UV-I 84 W/m 3,8 C 5,0 C 4,6 km/h (1 Bft)
27.02.2014 16:00 5,5 C 88 % 1016,3 hPa 0,0 l/m 4,0 km/h (1 Bft) S 0,35 h 0,025 mm 0,0 UV-I 49 W/m 3,6 C 5,4 C 6,2 km/h (2 Bft)
27.02.2014 17:00 5,0 C 89 % 1015,8 hPa 0,0 l/m 2,8 km/h (1 Bft) S 0,00 h 0,025 mm 0,0 UV-I 9 W/m 3,3 C 5,0 C 4,8 km/h (1 Bft)
27.02.2014 18:00 4,7 C 88 % 1015,4 hPa 0,0 l/m 3,1 km/h (1 Bft) S-SO 0,00 h 0,000 mm 0,0 UV-I 0 W/m 3,0 C 4,7 C 4,9 km/h (1 Bft)
27.02.2014 19:00 3,8 C 88 % 1014,9 hPa 0,0 l/m 1,9 km/h (1 Bft) SO 0,00 h 0,000 mm 0,0 UV-I 0 W/m 2,0 C 3,8 C 3,3 km/h (1 Bft)
27.02.2014 20:00 2,2 C 89 % 1014,5 hPa 0,0 l/m 0,9 km/h (0 Bft) O-SO 0,00 h 0,000 mm 0,0 UV-I 0 W/m 0,6 C 2,2 C 1,8 km/h (1 Bft)
27.02.2014 21:00 0,9 C 92 % 1014,1 hPa 0,0 l/m 1,3 km/h (1 Bft) O-SO 0,00 h 0,000 mm 0,0 UV-I 0 W/m -0,3 C 0,9 C 2,3 km/h (1 Bft)
27.02.2014 22:00 -0,1 C 93 % 1014,0 hPa 0,0 l/m 0,1 km/h (0 Bft) O 0,00 h 0,000 mm 0,0 UV-I 0 W/m -1,1 C -0,1 C 0,4 km/h (0 Bft)
27.02.2014 23:00 0,0 C 95 % 1013,4 hPa 0,0 l/m 0,6 km/h (0 Bft) O 0,00 h 0,000 mm 0,0 UV-I 0 W/m -0,7 C 0,0 C 1,4 km/h (1 Bft)
28.02.2014 00:00 0,1 C 95 % 1012,8 hPa 0,0 l/m 0,0 km/h (0 Bft) N 0,00 h 0,000 mm 0,0 UV-I 0 W/m -0,6 C 0,1 C 0,1 km/h (0 Bft)
28.02.2014 01:00 -0,1 C 95 % 1012,2 hPa 0,0 l/m 0,1 km/h (0 Bft) O 0,00 h 0,000 mm 0,0 UV-I 0 W/m -0,8 C -0,1 C 0,2 km/h (0 Bft)
28.02.2014 02:00 -0,2 C 95 % 1011,3 hPa 0,0 l/m 0,3 km/h (0 Bft) NO 0,00 h 0,000 mm 0,0 UV-I 0 W/m -0,9 C -0,2 C 0,8 km/h (0 Bft)
28.02.2014 03:00 1,2 C 96 % 1010,6 hPa 0,4 l/m 7,7 km/h (2 Bft) S 0,00 h 0,000 mm 0,0 UV-I 0 W/m 0,6 C -0,9 C 11,7 km/h (2 Bft)
28.02.2014 04:00 1,7 C 95 % 1010,0 hPa 0,2 l/m 9,6 km/h (2 Bft) S 0,00 h 0,000 mm 0,0 UV-I 0 W/m 1,0 C -1,1 C 13,8 km/h (3 Bft)
28.02.2014 05:00 1,8 C 95 % 1009,6 hPa 0,2 l/m 9,4 km/h (2 Bft) S 0,00 h 0,000 mm 0,0 UV-I 0 W/m 1,1 C -0,8 C 13,6 km/h (3 Bft)
28.02.2014 06:00 2,0 C 95 % 1009,1 hPa 0,0 l/m 7,7 km/h (2 Bft) S 0,00 h 0,000 mm 0,0 UV-I 0 W/m 1,3 C 0,5 C 11,2 km/h (2 Bft)
28.02.2014 07:00 2,1 C 95 % 1008,9 hPa 0,0 l/m 9,1 km/h (2 Bft) S 0,00 h 0,000 mm 0,0 UV-I 9 W/m 1,4 C -0,3 C 13,6 km/h (3 Bft)
28.02.2014 08:00 2,4 C 94 % 1008,8 hPa 0,0 l/m 7,7 km/h (2 Bft) S 0,28 h 0,000 mm 0,5 UV-I 42 W/m 1,5 C 1,1 C 11,6 km/h (2 Bft)
28.02.2014 09:00 2,9 C 92 % 1008,6 hPa 0,0 l/m 7,8 km/h (2 Bft) S 1,00 h 0,025 mm 0,7 UV-I 98 W/m 1,8 C 1,4 C 11,9 km/h (2 Bft)
28.02.2014 10:00 3,0 C 93 % 1008,1 hPa 0,0 l/m 6,3 km/h (2 Bft) S 0,78 h 0,051 mm 0,6 UV-I 72 W/m 1,9 C 2,4 C 9,2 km/h (2 Bft)
28.02.2014 11:00 3,4 C 90 % 1007,6 hPa 0,0 l/m 5,3 km/h (1 Bft) W-SW 0,52 h 0,025 mm 0,7 UV-I 63 W/m 1,9 C 3,2 C 8,0 km/h (2 Bft)
28.02.2014 12:00 4,2 C 87 % 1006,6 hPa 0,0 l/m 6,5 km/h (2 Bft) S 0,92 h 0,025 mm 1,0 UV-I 162 W/m 2,2 C 3,6 C 9,9 km/h (2 Bft)
28.02.2014 13:00 4,8 C 81 % 1005,8 hPa 0,0 l/m 9,2 km/h (2 Bft) S 1,00 h 0,076 mm 1,2 UV-I 200 W/m 1,9 C 2,4 C 12,8 km/h (3 Bft)
28.02.2014 14:00 5,5 C 77 % 1005,0 hPa 0,0 l/m 9,2 km/h (2 Bft) S-SO 1,00 h 0,102 mm 0,9 UV-I 195 W/m 1,7 C 3,3 C 13,4 km/h (3 Bft)
28.02.2014 15:00 5,6 C 76 % 1004,6 hPa 0,0 l/m 6,3 km/h (2 Bft) S-SO 0,68 h 0,102 mm 0,6 UV-I 86 W/m 1,7 C 4,9 C 9,4 km/h (2 Bft)
28.02.2014 16:00 6,1 C 75 % 1004,4 hPa 0,0 l/m 4,2 km/h (1 Bft) SO 0,80 h 0,051 mm 0,0 UV-I 109 W/m 2,0 C 5,9 C 6,9 km/h (2 Bft)
28.02.2014 17:00 5,3 C 78 % 1004,2 hPa 0,0 l/m 2,9 km/h (1 Bft) O-SO 0,00 h 0,051 mm 0,0 UV-I 12 W/m 1,7 C 5,3 C 4,8 km/h (1 Bft)
28.02.2014 18:00 4,3 C 82 % 1004,2 hPa 0,0 l/m 1,9 km/h (1 Bft) O 0,00 h 0,000 mm 0,0 UV-I 0 W/m 1,5 C 4,3 C 3,9 km/h (1 Bft)
28.02.2014 19:00 3,3 C 85 % 1004,0 hPa 0,0 l/m 3,7 km/h (1 Bft) O-NO 0,00 h 0,000 mm 0,0 UV-I 0 W/m 1,0 C 3,3 C 6,6 km/h (2 Bft)
28.02.2014 20:00 3,1 C 85 % 1003,8 hPa 0,0 l/m 3,4 km/h (1 Bft) O-NO 0,00 h 0,000 mm 0,0 UV-I 0 W/m 0,9 C 3,1 C 6,0 km/h (2 Bft)
28.02.2014 21:00 3,2 C 83 % 1003,6 hPa 0,0 l/m 3,8 km/h (1 Bft) O-NO 0,00 h 0,000 mm 0,0 UV-I 0 W/m 0,6 C 3,2 C 6,6 km/h (2 Bft)
28.02.2014 22:00 2,6 C 84 % 1003,4 hPa 0,0 l/m 4,0 km/h (1 Bft) O-NO 0,00 h 0,000 mm 0,0 UV-I 0 W/m 0,1 C 2,6 C 7,6 km/h (2 Bft)
28.02.2014 23:00 1,7 C 84 % 1003,3 hPa 0,0 l/m 1,7 km/h (1 Bft) O-NO 0,00 h 0,000 mm 0,0 UV-I 0 W/m -0,8 C 1,7 C 3,7 km/h (1 Bft)
01.03.2014 00:00 -0,4 C 90 % 1003,5 hPa 0,0 l/m 0,4 km/h (0 Bft) N-NO 0,00 h 0,000 mm 0,0 UV-I 0 W/m -1,8 C -0,4 C 1,5 km/h (1 Bft)
01.03.2014 01:00 -0,7 C 92 % 1003,9 hPa 0,0 l/m 0,0 km/h (0 Bft) N-NO 0,00 h 0,000 mm 0,0 UV-I 0 W/m -1,8 C -0,7 C 0,2 km/h (0 Bft)
01.03.2014 02:00 -0,3 C 94 % 1003,6 hPa 0,0 l/m 1,0 km/h (0 Bft) N 0,00 h 0,000 mm 0,0 UV-I 0 W/m -1,2 C -0,3 C 2,2 km/h (1 Bft)
01.03.2014 03:00 0,2 C 93 % 1003,3 hPa 0,0 l/m 0,8 km/h (0 Bft) O-NO 0,00 h 0,000 mm 0,0 UV-I 0 W/m -0,8 C 0,2 C 2,4 km/h (1 Bft)
01.03.2014 04:00 -0,4 C 93 % 1003,4 hPa 0,0 l/m 0,3 km/h (0 Bft) SO 0,00 h 0,000 mm 0,0 UV-I 0 W/m -1,4 C -0,4 C 1,1 km/h (1 Bft)
01.03.2014 05:00 -0,7 C 94 % 1003,4 hPa 0,0 l/m 4,2 km/h (1 Bft) O 0,00 h 0,000 mm 0,0 UV-I 0 W/m -1,5 C -1,1 C 7,7 km/h (2 Bft)
01.03.2014 06:00 1,0 C 93 % 1003,4 hPa 0,0 l/m 4,3 km/h (1 Bft) O 0,00 h 0,000 mm 0,0 UV-I 6 W/m 0,1 C 1,0 C 8,3 km/h (2 Bft)
01.03.2014 07:00 0,3 C 93 % 1003,9 hPa 0,0 l/m 0,7 km/h (0 Bft) S-SO 0,03 h 0,000 mm 0,0 UV-I 29 W/m -0,7 C 0,3 C 1,6 km/h (1 Bft)
01.03.2014 08:00 1,2 C 93 % 1004,1 hPa 0,0 l/m 6,9 km/h (2 Bft) O 0,88 h 0,000 mm 0,5 UV-I 77 W/m 0,2 C -0,6 C 10,7 km/h (2 Bft)
01.03.2014 09:00 1,6 C 91 % 1004,1 hPa 0,0 l/m 7,1 km/h (2 Bft) O-NO 1,00 h 0,025 mm 0,8 UV-I 156 W/m 0,3 C 0,0 C 11,8 km/h (2 Bft)
01.03.2014 10:00 3,3 C 86 % 1003,9 hPa 0,0 l/m 9,7 km/h (2 Bft) O 1,00 h 0,051 mm 1,4 UV-I 290 W/m 1,1 C 0,4 C 17,4 km/h (3 Bft)
01.03.2014 11:00 3,2 C 85 % 1004,0 hPa 0,0 l/m 7,0 km/h (2 Bft) O 1,00 h 0,127 mm 1,4 UV-I 213 W/m 0,8 C 2,0 C 12,0 km/h (2 Bft)
01.03.2014 12:00 4,0 C 82 % 1003,5 hPa 0,0 l/m 7,3 km/h (2 Bft) O 1,00 h 0,102 mm 1,6 UV-I 279 W/m 1,1 C 2,5 C 12,5 km/h (3 Bft)
01.03.2014 13:00 4,0 C 80 % 1003,1 hPa 0,0 l/m 5,3 km/h (1 Bft) O 1,00 h 0,127 mm 1,4 UV-I 252 W/m 0,9 C 3,7 C 9,7 km/h (2 Bft)
01.03.2014 14:00 4,2 C 80 % 1002,8 hPa 0,0 l/m 5,9 km/h (2 Bft) O 1,00 h 0,102 mm 1,3 UV-I 331 W/m 1,0 C 3,4 C 10,9 km/h (2 Bft)
01.03.2014 15:00 3,8 C 81 % 1002,5 hPa 0,0 l/m 7,4 km/h (2 Bft) O 1,00 h 0,127 mm 0,8 UV-I 228 W/m 0,8 C 2,4 C 12,7 km/h (3 Bft)
01.03.2014 16:00 4,1 C 81 % 1002,2 hPa 0,0 l/m 4,8 km/h (1 Bft) SO 0,60 h 0,102 mm 0,5 UV-I 75 W/m 1,2 C 3,5 C 8,8 km/h (2 Bft)
01.03.2014 17:00 4,0 C 82 % 1002,5 hPa 0,0 l/m 0,8 km/h (0 Bft) W-NW 0,00 h 0,025 mm 0,0 UV-I 17 W/m 1,2 C 4,0 C 2,3 km/h (1 Bft)
01.03.2014 18:00 3,3 C 85 % 1002,8 hPa 0,0 l/m 1,9 km/h (1 Bft) NW 0,00 h 0,000 mm 0,0 UV-I 0 W/m 1,1 C 3,3 C 4,5 km/h (1 Bft)
01.03.2014 19:00 2,4 C 87 % 1002,5 hPa 0,0 l/m 3,1 km/h (1 Bft) O-NO 0,00 h 0,000 mm 0,0 UV-I 0 W/m 0,6 C 2,4 C 6,5 km/h (2 Bft)
01.03.2014 20:00 2,1 C 88 % 1002,3 hPa 0,0 l/m 2,6 km/h (1 Bft) N-NO 0,00 h 0,000 mm 0,0 UV-I 0 W/m 0,4 C 2,2 C 5,1 km/h (1 Bft)
01.03.2014 21:00 1,6 C 88 % 1002,4 hPa 0,0 l/m 1,3 km/h (1 Bft) N 0,00 h 0,000 mm 0,0 UV-I 0 W/m -0,2 C 1,6 C 2,3 km/h (1 Bft)
01.03.2014 22:00 0,6 C 90 % 1002,4 hPa 0,0 l/m 0,9 km/h (0 Bft) N 0,00 h 0,000 mm 0,0 UV-I 0 W/m -0,9 C 0,6 C 1,9 km/h (1 Bft)
01.03.2014 23:00 -0,2 C 92 % 1002,3 hPa 0,0 l/m 0,2 km/h (0 Bft) N 0,00 h 0,000 mm 0,0 UV-I 0 W/m -1,4 C -0,2 C 0,6 km/h (0 Bft)
02.03.2014 00:00 -0,7 C 93 % 1002,2 hPa 0,0 l/m 0,6 km/h (0 Bft) N 0,00 h 0,000 mm 0,0 UV-I 0 W/m -1,7 C -0,7 C 1,0 km/h (0 Bft)
02.03.2014 01:00 -0,8 C 94 % 1002,5 hPa 0,0 l/m 1,7 km/h (1 Bft) N 0,00 h 0,000 mm 0,0 UV-I 0 W/m -1,7 C -0,8 C 2,9 km/h (1 Bft)
02.03.2014 02:00 -1,4 C 94 % 1002,3 hPa 0,0 l/m 0,2 km/h (0 Bft) N 0,00 h 0,000 mm 0,0 UV-I 0 W/m -2,2 C -1,4 C 0,7 km/h (0 Bft)
02.03.2014 03:00 -1,8 C 94 % 1002,5 hPa 0,0 l/m 0,1 km/h (0 Bft) N 0,00 h 0,000 mm 0,0 UV-I 0 W/m -2,7 C -1,8 C 0,6 km/h (0 Bft)
02.03.2014 04:00 -2,3 C 94 % 1002,7 hPa 0,0 l/m 0,1 km/h (0 Bft) N 0,00 h 0,000 mm 0,0 UV-I 0 W/m -3,1 C -2,3 C 0,2 km/h (0 Bft)
02.03.2014 05:00 -2,5 C 94 % 1003,1 hPa 0,0 l/m 0,1 km/h (0 Bft) N 0,00 h 0,000 mm 0,0 UV-I 0 W/m -3,4 C -2,5 C 0,1 km/h (0 Bft)
02.03.2014 06:00 -2,8 C 94 % 1003,6 hPa 0,0 l/m 0,6 km/h (0 Bft) N 0,00 h 0,000 mm 0,0 UV-I 5 W/m -3,6 C -2,8 C 0,9 km/h (0 Bft)
02.03.2014 07:00 -2,4 C 95 % 1004,2 hPa 0,0 l/m 0,8 km/h (0 Bft) N 0,60 h 0,000 mm 0,0 UV-I 47 W/m -3,1 C -2,4 C 2,1 km/h (1 Bft)
02.03.2014 08:00 -1,2 C 95 % 1005,1 hPa 0,0 l/m 0,2 km/h (0 Bft) N 1,00 h 0,025 mm 0,5 UV-I 97 W/m -1,9 C -1,2 C 0,9 km/h (0 Bft)
02.03.2014 09:00 0,7 C 93 % 1005,4 hPa 0,0 l/m 1,4 km/h (1 Bft) N 1,00 h 0,025 mm 0,7 UV-I 160 W/m -0,4 C 0,7 C 2,6 km/h (1 Bft)
02.03.2014 10:00 3,2 C 89 % 1005,6 hPa 0,0 l/m 3,9 km/h (1 Bft) N 1,00 h 0,051 mm 1,3 UV-I 270 W/m 1,5 C 3,2 C 5,9 km/h (2 Bft)
02.03.2014 11:00 6,0 C 80 % 1005,3 hPa 0,0 l/m 4,8 km/h (1 Bft) N 1,00 h 0,102 mm 1,8 UV-I 387 W/m 2,8 C 5,8 C 7,5 km/h (2 Bft)
02.03.2014 12:00 7,8 C 74 % 1005,2 hPa 0,0 l/m 4,5 km/h (1 Bft) W-NW 1,00 h 0,178 mm 1,7 UV-I 265 W/m 3,5 C 7,7 C 7,1 km/h (2 Bft)
02.03.2014 13:00 8,1 C 73 % 1005,1 hPa 0,0 l/m 4,1 km/h (1 Bft) S-SO 1,00 h 0,127 mm 1,0 UV-I 177 W/m 3,5 C 7,9 C 6,9 km/h (2 Bft)
02.03.2014 14:00 7,8 C 75 % 1004,8 hPa 0,0 l/m 5,6 km/h (1 Bft) S-SO 1,00 h 0,102 mm 0,7 UV-I 122 W/m 3,5 C 7,5 C 8,1 km/h (2 Bft)
02.03.2014 15:00 8,0 C 75 % 1004,6 hPa 0,0 l/m 2,3 km/h (1 Bft) W-NW 1,00 h 0,076 mm 0,5 UV-I 91 W/m 3,7 C 8,0 C 4,2 km/h (1 Bft)
02.03.2014 16:00 8,0 C 73 % 1004,6 hPa 0,0 l/m 0,9 km/h (0 Bft) S-SO 0,87 h 0,051 mm 0,5 UV-I 92 W/m 3,6 C 8,0 C 2,0 km/h (1 Bft)
02.03.2014 17:00 7,7 C 74 % 1004,5 hPa 0,0 l/m 1,1 km/h (1 Bft) S 0,00 h 0,051 mm 0,0 UV-I 16 W/m 3,5 C 7,7 C 2,5 km/h (1 Bft)
02.03.2014 18:00 6,7 C 79 % 1004,3 hPa 0,0 l/m 1,2 km/h (1 Bft) O 0,00 h 0,000 mm 0,0 UV-I 0 W/m 3,4 C 6,7 C 2,7 km/h (1 Bft)
02.03.2014 19:00 4,9 C 84 % 1003,9 hPa 0,0 l/m 2,6 km/h (1 Bft) O 0,00 h 0,025 mm 0,0 UV-I 0 W/m 2,4 C 4,9 C 4,7 km/h (1 Bft)
02.03.2014 20:00 3,2 C 87 % 1003,5 hPa 0,0 l/m 0,2 km/h (0 Bft) O 0,00 h 0,000 mm 0,0 UV-I 0 W/m 1,2 C 3,2 C 0,8 km/h (0 Bft)
02.03.2014 21:00 1,8 C 89 % 1002,8 hPa 0,0 l/m 0,6 km/h (0 Bft) O 0,00 h 0,000 mm 0,0 UV-I 0 W/m 0,2 C 1,8 C 1,4 km/h (1 Bft)
02.03.2014 22:00 1,6 C 92 % 1002,4 hPa 0,0 l/m 0,1 km/h (0 Bft) O 0,00 h 0,000 mm 0,0 UV-I 0 W/m 0,5 C 1,6 C 0,2 km/h (0 Bft)
02.03.2014 23:00 1,6 C 92 % 1001,8 hPa 0,0 l/m 0,3 km/h (0 Bft) SO 0,00 h 0,000 mm 0,0 UV-I 0 W/m 0,3 C 1,6 C 0,8 km/h (0 Bft)
Min-Datum _ 25.02.14 24.02.14 02.03.14 - 24.02.14 - - - - - 25.02.14 28.02.14 24.02.14
_ Min-Zeit 07:10 14:06 23:59 - 00:00 - - - - - 07:10 03:48 00:00
Minimum _ -3,4 C 46 % 1001,4 hPa - 0,0 km/h (0 Bft) - - - - - -4,7 C -6,0 C 0,0 km/h (0 Bft)
Max-Datum _ 25.02.14 27.02.14 24.02.14 28.02.14 28.02.14 - 24.02.14 24.02.14 01.03.14 01.03.14 27.02.14 25.02.14 01.03.14
_ Max-Zeit 14:23 07:54 00:01 03:16 03:48 - 08:52 15:00 12:03 14:24 15:55 14:23 10:23
Maximum _ 12,3 C 97 % 1024,6 hPa 0,4 l/m 17,7 km/h
S (3 Bft)
- 0,07 h 0,254 mm 2,1 UV-I 561 W/m 4,2 C 12,3 C 29,0 km/h
O (5 Bft)
Durchschnitt _ 2,6 C 84 % 1012,4 hPa #0,8 l/m 3,1 km/h (1 Bft) O #59:45 h #6,268 mm 1,0 UV-I 160 W/m -0,1 C 2,2 C 5,3 km/h (1 Bft)